< < Back
Terminal Aerodrome Forecast


Current Version              Previous Versions:   1  2  3  4  5  6  7  8  9  

Terminal Aerodrome Forecast

633
FTUS42 KJAX 211720
TAFGNV
TAF
KGNV 211720Z 2118/2218 27010KT P6SM VCSH SCT050
     FM220100 27005KT P6SM SCT250
     FM221300 36010KT P6SM SCT250=

Latest METAR

859
SAUS70 KWBC 221400 RRO
MTRGNV
METAR KGNV 221353Z 36005KT 10SM CLR 24/17 A3011 RMK AO2 SLP193
T02440172


USA.gov is the U.S. government's official web portal to all federal, state and local government web resources and services.